Time;durP1;ratioP1;P1;durP2;ratioP2;P2;SDS_P1;SDS_P2;PMS_P1;PMS_P2;Temp;Humidity;BMP_temperature;BMP_pressure;BME280_temperature;BME280_humidity;BME280_pressure;Samples;Min_cycle;Max_cycle;Signal;HPM_P1;HPM_P2
2023/05/02 00:03:49;;;;;;;6.05;3.47;;;16.40;67.10;;;;;;10364717;28;20649;-56
2023/05/02 00:08:50;;;;;;;4.70;3.45;;;16.40;67.00;;;;;;10364471;28;20509;-56
2023/05/02 00:13:50;;;;;;;5.85;3.53;;;16.40;67.00;;;;;;10364761;28;20129;-57
2023/05/02 00:18:51;;;;;;;5.13;3.33;;;16.40;67.00;;;;;;10363972;28;20097;-56
2023/05/02 00:23:52;;;;;;;5.28;3.70;;;16.40;67.00;;;;;;10363788;28;20105;-56
2023/05/02 00:28:52;;;;;;;5.45;3.67;;;16.40;67.00;;;;;;10364110;28;20464;-56
2023/05/02 00:33:54;;;;;;;4.57;3.90;;;16.40;67.00;;;;;;10365943;28;20044;-55
2023/05/02 00:38:55;;;;;;;4.28;3.25;;;16.40;67.00;;;;;;10361989;28;20036;-56
2023/05/02 00:43:57;;;;;;;5.32;3.90;;;16.30;67.00;;;;;;10364147;28;20022;-55
2023/05/02 00:48:57;;;;;;;5.00;3.60;;;16.40;67.00;;;;;;10363795;28;20114;-57
2023/05/02 00:54:00;;;;;;;4.50;3.22;;;16.40;67.00;;;;;;10362406;28;20045;-56
2023/05/02 00:59:01;;;;;;;5.05;3.28;;;16.30;67.00;;;;;;10363635;28;20025;-56
2023/05/02 01:04:34;;;;;;;5.93;3.80;;;16.40;67.00;;;;;;10362728;28;20042;-57
2023/05/02 01:10:12;;;;;;;4.00;3.28;;;16.40;67.00;;;;;;10362208;28;20053;-56
2023/05/02 01:15:21;;;;;;;5.90;3.70;;;16.30;67.00;;;;;;10363431;28;20041;-55
2023/05/02 01:20:26;;;;;;;4.70;3.47;;;16.40;67.00;;;;;;10361669;28;20094;-56
2023/05/02 01:25:35;;;;;;;5.68;3.38;;;16.30;67.00;;;;;;10362216;28;20109;-56
2023/05/02 01:30:40;;;;;;;5.25;3.88;;;16.30;67.10;;;;;;10363338;28;20045;-56
2023/05/02 01:35:43;;;;;;;5.97;4.47;;;16.30;67.00;;;;;;10361865;28;20077;-57
2023/05/02 01:40:45;;;;;;;5.97;3.40;;;16.30;67.10;;;;;;10369089;28;20067;-56
2023/05/02 01:45:48;;;;;;;4.85;4.18;;;16.30;67.00;;;;;;10368415;28;20553;-57
2023/05/02 01:50:51;;;;;;;5.15;3.58;;;16.30;67.00;;;;;;10369829;28;20018;-57
2023/05/02 01:55:53;;;;;;;5.15;4.00;;;16.30;67.10;;;;;;10369799;28;20411;-54
2023/05/02 02:00:57;;;;;;;8.63;3.60;;;16.30;67.00;;;;;;10368031;28;20546;-57
2023/05/02 02:05:59;;;;;;;4.95;3.45;;;16.30;67.10;;;;;;10367597;28;20567;-56
2023/05/02 02:11:08;;;;;;;5.47;3.60;;;16.30;67.10;;;;;;10367863;28;20026;-56
2023/05/02 02:16:13;;;;;;;7.65;4.00;;;16.30;67.20;;;;;;10369004;28;20129;-56
2023/05/02 02:21:18;;;;;;;4.47;2.88;;;16.30;67.10;;;;;;10367326;28;20033;-55
2023/05/02 02:26:21;;;;;;;5.15;3.17;;;16.30;67.20;;;;;;10353768;28;20101;-56
2023/05/02 02:31:24;;;;;;;4.88;3.05;;;16.30;67.20;;;;;;10367848;28;20481;-56
2023/05/02 02:36:34;;;;;;;3.97;3.22;;;16.30;67.20;;;;;;10367717;28;20026;-57
2023/05/02 02:41:42;;;;;;;4.00;3.10;;;16.20;67.10;;;;;;10366575;28;20015;-56
2023/05/02 02:47:07;;;;;;;3.95;3.30;;;16.20;67.10;;;;;;10366209;28;20022;-57
2023/05/02 02:52:23;;;;;;;4.95;2.92;;;16.20;67.10;;;;;;10367061;28;20038;-56
2023/05/02 02:58:06;;;;;;;4.80;3.10;;;16.20;67.00;;;;;;10367491;28;20385;-56
2023/05/02 03:03:08;;;;;;;4.03;2.85;;;16.20;67.10;;;;;;10359310;28;20050;-57
2023/05/02 03:08:09;;;;;;;4.95;3.20;;;16.20;67.10;;;;;;10365354;28;20010;-56
2023/05/02 03:13:10;;;;;;;6.82;2.72;;;16.20;67.00;;;;;;10364888;28;20041;-56
2023/05/02 03:18:10;;;;;;;3.33;2.63;;;16.20;67.00;;;;;;10366762;28;20057;-56
2023/05/02 03:23:11;;;;;;;3.72;2.70;;;16.20;67.00;;;;;;10364519;28;20432;-56
2023/05/02 03:28:11;;;;;;;3.00;2.60;;;16.20;67.00;;;;;;10366182;28;20105;-55
2023/05/02 03:33:12;;;;;;;3.78;2.50;;;16.20;67.00;;;;;;10368755;28;20129;-55
2023/05/02 03:38:13;;;;;;;3.22;2.40;;;16.20;67.00;;;;;;10365678;28;20020;-57
2023/05/02 03:43:14;;;;;;;3.55;2.28;;;16.20;66.90;;;;;;10364123;28;20686;-56
2023/05/02 03:48:15;;;;;;;3.50;1.90;;;16.20;66.90;;;;;;10365231;28;20128;-56
2023/05/02 03:53:15;;;;;;;3.65;2.50;;;16.20;66.90;;;;;;10365233;28;20034;-56
2023/05/02 03:58:16;;;;;;;4.13;2.70;;;16.10;66.90;;;;;;10363748;28;20010;-53
2023/05/02 04:03:17;;;;;;;3.78;2.33;;;16.10;66.80;;;;;;10361757;28;20064;-57
2023/05/02 04:08:18;;;;;;;3.88;2.47;;;16.10;66.90;;;;;;10363448;28;20061;-56
2023/05/02 04:13:18;;;;;;;9.27;3.05;;;16.10;66.80;;;;;;10364822;28;20072;-57
2023/05/02 04:18:19;;;;;;;3.95;2.40;;;16.10;66.80;;;;;;10364105;28;20469;-57
2023/05/02 04:23:20;;;;;;;3.53;2.67;;;16.10;66.80;;;;;;10363434;28;20073;-56
2023/05/02 04:28:21;;;;;;;4.07;2.15;;;16.10;66.80;;;;;;10364240;28;20058;-55
2023/05/02 04:33:23;;;;;;;4.00;2.30;;;16.10;66.80;;;;;;10365145;28;20520;-55
2023/05/02 04:38:24;;;;;;;2.92;2.13;;;16.10;66.80;;;;;;10363941;28;20083;-57
2023/05/02 04:43:24;;;;;;;3.20;1.77;;;16.10;66.70;;;;;;10364007;28;20054;-56
2023/05/02 04:48:25;;;;;;;6.00;2.58;;;16.10;66.70;;;;;;10363422;28;20038;-56
2023/05/02 04:53:26;;;;;;;2.75;1.55;;;16.10;66.70;;;;;;10363037;28;20060;-57
2023/05/02 04:58:27;;;;;;;3.15;2.10;;;16.10;66.70;;;;;;10363229;28;20046;-57
2023/05/02 05:03:32;;;;;;;3.20;2.00;;;16.10;66.70;;;;;;10363207;28;20133;-56
2023/05/02 05:08:32;;;;;;;3.15;2.35;;;16.10;66.70;;;;;;10363385;28;20045;-56
2023/05/02 05:13:33;;;;;;;2.33;1.67;;;16.10;66.70;;;;;;10369907;28;20026;-57
2023/05/02 05:18:40;;;;;;;3.35;1.95;;;16.10;66.70;;;;;;10369939;28;20029;-57
2023/05/02 05:23:44;;;;;;;2.80;1.65;;;16.10;66.70;;;;;;10368973;28;20776;-57
2023/05/02 05:28:45;;;;;;;2.92;1.98;;;16.10;66.70;;;;;;10373170;28;20092;-56
2023/05/02 05:33:46;;;;;;;4.25;2.10;;;16.10;66.70;;;;;;10371283;28;20030;-57
2023/05/02 05:38:46;;;;;;;2.42;1.77;;;16.10;66.70;;;;;;10370513;28;20060;-53
2023/05/02 05:43:47;;;;;;;3.55;2.58;;;16.10;66.70;;;;;;10369113;28;20101;-57
2023/05/02 05:48:48;;;;;;;2.65;1.67;;;16.10;66.60;;;;;;10352242;28;20046;-56
2023/05/02 05:53:48;;;;;;;2.85;1.83;;;16.00;66.60;;;;;;10369624;28;20122;-56
2023/05/02 05:58:49;;;;;;;3.75;2.50;;;16.00;66.60;;;;;;10368563;28;20045;-55
2023/05/02 06:03:50;;;;;;;4.30;2.40;;;16.10;66.60;;;;;;10368946;28;20041;-56
2023/05/02 06:08:50;;;;;;;2.72;2.08;;;16.00;66.50;;;;;;10369039;28;20527;-57
2023/05/02 06:13:51;;;;;;;4.68;3.22;;;16.10;66.60;;;;;;10368861;28;20447;-56
2023/05/02 06:18:52;;;;;;;3.80;2.05;;;16.10;66.60;;;;;;10368537;28;20097;-57
2023/05/02 06:23:53;;;;;;;2.55;1.75;;;16.10;66.60;;;;;;10365311;28;20469;-56
2023/05/02 06:28:54;;;;;;;3.65;2.28;;;16.10;66.60;;;;;;10357506;28;20117;-57
2023/05/02 06:33:55;;;;;;;2.65;1.75;;;16.10;66.60;;;;;;10368362;28;20026;-56
2023/05/02 06:38:55;;;;;;;2.58;2.03;;;16.10;66.60;;;;;;10367464;28;20373;-56
2023/05/02 06:43:56;;;;;;;3.60;2.55;;;16.10;66.60;;;;;;10367716;28;20095;-56
2023/05/02 06:48:57;;;;;;;3.40;1.80;;;16.10;66.60;;;;;;10367886;28;20053;-56
2023/05/02 06:53:57;;;;;;;2.45;1.77;;;16.10;66.60;;;;;;10367076;28;20080;-55
2023/05/02 06:58:58;;;;;;;3.70;1.80;;;16.10;66.50;;;;;;10367109;28;20097;-57
2023/05/02 07:04:03;;;;;;;2.20;1.50;;;16.10;66.50;;;;;;10366720;28;20052;-57
2023/05/02 07:09:03;;;;;;;2.58;1.70;;;16.10;66.60;;;;;;10381506;28;20061;-57
2023/05/02 07:14:04;;;;;;;3.10;1.67;;;16.10;66.60;;;;;;10366673;28;20109;-55
2023/05/02 07:19:05;;;;;;;3.03;1.75;;;16.10;66.60;;;;;;10366237;28;20034;-57
2023/05/02 07:24:06;;;;;;;2.10;1.35;;;16.10;66.70;;;;;;10366004;28;20021;-56
2023/05/02 07:29:08;;;;;;;3.13;1.63;;;16.10;66.70;;;;;;10365981;28;20491;-56
2023/05/02 07:34:09;;;;;;;3.33;1.88;;;16.10;66.80;;;;;;10364989;28;20066;-55
2023/05/02 07:39:09;;;;;;;3.03;1.52;;;16.10;66.90;;;;;;10365994;28;20440;-56
2023/05/02 07:44:10;;;;;;;1.95;1.27;;;16.10;67.00;;;;;;10365459;28;20053;-57
2023/05/02 07:49:12;;;;;;;2.22;1.20;;;16.10;67.00;;;;;;10364809;28;20029;-56
2023/05/02 07:54:17;;;;;;;3.08;1.90;;;16.10;67.00;;;;;;10365548;28;20026;-57
2023/05/02 07:59:18;;;;;;;2.65;1.65;;;16.10;67.00;;;;;;10365349;28;20028;-56
2023/05/02 08:04:18;;;;;;;3.83;1.77;;;16.10;67.00;;;;;;10364580;28;20100;-56
2023/05/02 08:09:19;;;;;;;1.98;1.30;;;16.10;67.00;;;;;;10365234;28;20061;-56
2023/05/02 08:14:20;;;;;;;1.92;1.23;;;16.10;66.80;;;;;;10364113;28;20125;-56
2023/05/02 08:19:20;;;;;;;1.52;1.40;;;16.10;66.70;;;;;;10364990;28;20517;-56
2023/05/02 08:24:21;;;;;;;5.07;1.63;;;16.20;66.60;;;;;;10357759;28;20091;-54
2023/05/02 08:29:23;;;;;;;2.90;1.88;;;16.20;66.60;;;;;;10358097;28;20022;-56
2023/05/02 08:34:23;;;;;;;4.22;1.98;;;16.20;66.60;;;;;;10363588;28;20048;-57
2023/05/02 08:39:24;;;;;;;2.35;1.48;;;16.20;66.50;;;;;;10361340;28;20023;-57
2023/05/02 08:44:25;;;;;;;3.90;2.40;;;16.20;66.50;;;;;;10363963;28;20046;-55
2023/05/02 08:49:28;;;;;;;3.58;1.63;;;16.30;66.60;;;;;;10372110;28;20050;-55
2023/05/02 08:54:29;;;;;;;3.90;2.42;;;16.30;66.50;;;;;;10370457;28;20037;-57
2023/05/02 08:59:30;;;;;;;2.60;1.58;;;16.30;66.40;;;;;;10370245;28;20477;-56
2023/05/02 09:04:33;;;;;;;3.60;1.83;;;16.40;66.40;;;;;;10371165;28;20053;-57
2023/05/02 09:09:33;;;;;;;3.97;1.83;;;16.40;66.40;;;;;;10369921;28;20080;-57
2023/05/02 09:14:34;;;;;;;2.88;1.60;;;16.30;66.30;;;;;;10371335;28;20042;-57
2023/05/02 09:19:35;;;;;;;3.20;1.98;;;16.30;66.30;;;;;;10370907;28;20045;-57
2023/05/02 09:24:37;;;;;;;2.42;1.70;;;16.30;66.30;;;;;;10370803;28;20033;-57
2023/05/02 09:29:39;;;;;;;2.50;1.55;;;16.40;66.30;;;;;;10370737;28;20041;-57
2023/05/02 09:35:00;;;;;;;3.85;1.40;;;16.30;66.30;;;;;;10370885;28;20121;-57
2023/05/02 09:40:05;;;;;;;3.33;2.15;;;16.40;66.30;;;;;;10368313;28;20117;-55
2023/05/02 09:45:07;;;;;;;3.67;1.60;;;16.40;66.30;;;;;;10370106;28;20025;-55
2023/05/02 09:50:08;;;;;;;2.50;1.60;;;16.40;66.30;;;;;;10368215;28;20448;-57
2023/05/02 09:55:21;;;;;;;3.72;1.67;;;16.40;66.30;;;;;;10367917;28;20076;-55
2023/05/02 10:00:23;;;;;;;3.58;1.42;;;16.40;66.20;;;;;;10368392;28;20125;-57
2023/05/02 10:05:25;;;;;;;2.17;1.30;;;16.40;66.20;;;;;;10369351;28;20061;-56
2023/05/02 10:10:26;;;;;;;3.28;1.60;;;16.40;66.10;;;;;;10367201;28;20385;-56
2023/05/02 10:15:31;;;;;;;3.13;1.30;;;16.40;66.10;;;;;;10367249;28;20479;-57
2023/05/02 10:20:35;;;;;;;2.63;1.75;;;16.40;66.00;;;;;;10368189;28;20029;-56
2023/05/02 10:25:36;;;;;;;3.25;1.63;;;16.40;66.00;;;;;;10358526;28;20507;-56
2023/05/02 10:30:39;;;;;;;2.40;1.38;;;16.40;66.00;;;;;;10370021;28;20014;-55
2023/05/02 10:35:47;;;;;;;3.30;1.75;;;16.40;65.90;;;;;;10366888;28;20481;-57
2023/05/02 10:41:06;;;;;;;2.88;1.60;;;16.50;66.00;;;;;;10367908;28;20018;-56
2023/05/02 10:46:42;;;;;;;3.13;1.33;;;16.50;65.80;;;;;;10366738;28;20109;-57
2023/05/02 10:51:43;;;;;;;3.47;1.20;;;16.50;65.80;;;;;;10367549;28;20711;-57
2023/05/02 10:57:05;;;;;;;3.22;1.38;;;16.50;65.80;;;;;;10367314;28;20018;-55
2023/05/02 11:02:29;;;;;;;4.18;1.60;;;16.60;65.90;;;;;;10367182;28;20412;-57
2023/05/02 11:07:35;;;;;;;3.78;1.63;;;16.60;65.70;;;;;;10351569;28;20077;-57
2023/05/02 11:12:48;;;;;;;2.50;1.25;;;16.60;65.80;;;;;;10366178;28;20695;-56
2023/05/02 11:18:12;;;;;;;3.63;1.60;;;16.60;65.80;;;;;;10366091;28;20025;-57
2023/05/02 11:23:14;;;;;;;2.30;1.77;;;16.70;65.80;;;;;;10360934;28;20054;-54
2023/05/02 11:28:37;;;;;;;2.28;1.35;;;16.70;65.60;;;;;;10339763;28;20036;-57
2023/05/02 11:33:37;;;;;;;3.08;1.52;;;16.70;65.80;;;;;;10365881;28;20165;-57
2023/05/02 11:38:38;;;;;;;2.05;1.30;;;16.70;65.70;;;;;;10362973;28;20544;-57
2023/05/02 11:43:39;;;;;;;2.83;1.70;;;16.70;65.70;;;;;;10364091;28;20068;-55
2023/05/02 11:48:40;;;;;;;2.38;1.33;;;16.80;65.60;;;;;;10363739;28;20093;-56
2023/05/02 11:53:42;;;;;;;1.55;1.08;;;16.80;65.60;;;;;;10363078;28;20525;-54
2023/05/02 11:58:43;;;;;;;2.63;1.65;;;16.80;65.00;;;;;;10363847;28;20080;-55
2023/05/02 12:03:44;;;;;;;2.15;1.27;;;16.80;65.20;;;;;;10364763;28;20112;-57
2023/05/02 12:08:44;;;;;;;2.95;1.30;;;16.90;65.30;;;;;;10364840;28;20121;-56
2023/05/02 12:13:48;;;;;;;2.35;1.38;;;16.90;65.30;;;;;;10364232;28;20034;-56
2023/05/02 12:18:49;;;;;;;2.35;1.38;;;16.90;65.20;;;;;;10364202;28;20060;-56
2023/05/02 12:23:50;;;;;;;2.35;1.40;;;17.00;64.90;;;;;;10363862;28;20025;-55
2023/05/02 12:28:53;;;;;;;3.40;1.70;;;17.00;65.10;;;;;;10364579;28;20120;-56
2023/05/02 12:33:56;;;;;;;2.17;1.67;;;17.10;64.90;;;;;;10364903;28;20038;-54
2023/05/02 12:38:58;;;;;;;2.92;1.67;;;17.10;64.70;;;;;;10364658;28;20026;-55
2023/05/02 12:43:59;;;;;;;2.47;1.58;;;17.10;64.90;;;;;;10363857;28;20093;-54
2023/05/02 12:49:06;;;;;;;1.95;1.30;;;17.00;64.80;;;;;;10363089;28;20050;-56
2023/05/02 12:54:07;;;;;;;5.35;2.25;;;17.10;64.90;;;;;;10364094;28;20061;-53
2023/05/02 12:59:09;;;;;;;2.28;1.33;;;17.20;64.70;;;;;;10363779;28;20397;-53
2023/05/02 13:04:10;;;;;;;2.90;1.60;;;17.20;65.60;;;;;;10362551;28;20393;-55
2023/05/02 13:09:11;;;;;;;3.65;1.60;;;17.20;65.00;;;;;;10363050;28;20053;-55
2023/05/02 13:14:11;;;;;;;2.28;1.52;;;17.20;64.80;;;;;;10363275;28;20749;-54
2023/05/02 13:19:12;;;;;;;4.13;2.25;;;17.20;64.90;;;;;;10363365;28;20097;-56
2023/05/02 13:24:13;;;;;;;4.90;1.60;;;17.20;65.00;;;;;;10360077;28;20061;-57
2023/05/02 13:29:14;;;;;;;1.55;1.05;;;17.20;64.90;;;;;;10362661;28;20100;-56
2023/05/02 13:34:15;;;;;;;2.42;1.60;;;17.20;64.90;;;;;;10369589;28;20133;-56
2023/05/02 13:39:15;;;;;;;2.38;1.50;;;17.20;64.90;;;;;;10370290;28;20056;-57
2023/05/02 13:44:16;;;;;;;2.35;1.52;;;17.20;64.90;;;;;;10369422;28;20720;-56
2023/05/02 13:49:16;;;;;;;2.80;1.52;;;17.30;65.10;;;;;;10367813;28;20109;-56
2023/05/02 13:54:17;;;;;;;3.72;1.70;;;17.30;65.00;;;;;;10369286;28;20076;-57
2023/05/02 13:59:18;;;;;;;3.90;1.83;;;17.30;64.60;;;;;;10369219;28;20714;-55
2023/05/02 14:04:19;;;;;;;5.20;1.70;;;17.30;65.00;;;;;;10367469;28;20052;-56
2023/05/02 14:09:19;;;;;;;4.53;1.52;;;17.30;64.20;;;;;;10369310;28;20036;-56
2023/05/02 14:14:20;;;;;;;2.65;1.83;;;17.30;64.60;;;;;;10368791;28;20048;-55
2023/05/02 14:19:21;;;;;;;3.58;1.70;;;17.40;64.50;;;;;;10368655;28;20626;-56
2023/05/02 14:24:21;;;;;;;2.25;1.50;;;17.30;64.60;;;;;;10368202;28;20065;-55
2023/05/02 14:29:22;;;;;;;3.13;1.35;;;17.30;64.10;;;;;;10368573;28;20096;-55
2023/05/02 14:34:25;;;;;;;3.92;1.80;;;17.30;65.00;;;;;;10367996;28;20116;-56
2023/05/02 14:39:26;;;;;;;4.30;1.63;;;17.30;63.80;;;;;;10365667;28;20018;-56
2023/05/02 14:44:27;;;;;;;3.00;1.63;;;17.30;64.90;;;;;;10367590;28;20058;-56
2023/05/02 14:49:27;;;;;;;3.85;1.58;;;17.30;64.70;;;;;;10367699;28;20049;-55
2023/05/02 14:54:29;;;;;;;1.75;1.20;;;17.30;64.40;;;;;;10367128;28;20507;-56
2023/05/02 14:59:30;;;;;;;2.72;1.70;;;17.30;64.50;;;;;;10367186;28;20025;-55
2023/05/02 15:04:30;;;;;;;3.28;1.70;;;17.30;64.90;;;;;;10366893;28;20073;-56
2023/05/02 15:09:31;;;;;;;2.35;1.50;;;17.30;64.80;;;;;;10366528;28;20108;-55
2023/05/02 15:14:32;;;;;;;3.88;1.52;;;17.30;64.00;;;;;;10366480;28;20453;-54
2023/05/02 15:19:32;;;;;;;3.78;1.50;;;17.30;64.70;;;;;;10366582;28;20424;-56
2023/05/02 15:24:33;;;;;;;2.50;1.30;;;17.30;64.90;;;;;;10366098;28;20393;-55
2023/05/02 15:29:34;;;;;;;2.80;1.42;;;17.30;64.80;;;;;;10365669;28;20028;-56
2023/05/02 15:34:35;;;;;;;3.15;1.80;;;17.40;64.90;;;;;;10367357;28;20037;-56
2023/05/02 15:39:35;;;;;;;1.90;1.58;;;17.30;64.50;;;;;;10365239;28;20109;-56
2023/05/02 15:44:36;;;;;;;2.47;1.70;;;17.40;64.90;;;;;;10365448;28;20442;-56
2023/05/02 15:49:37;;;;;;;3.00;1.77;;;17.40;64.90;;;;;;10365078;28;20556;-57
2023/05/02 15:54:38;;;;;;;2.55;1.98;;;17.40;64.90;;;;;;10350321;28;20032;-56
2023/05/02 15:59:38;;;;;;;3.13;1.35;;;17.40;64.80;;;;;;10363566;28;20014;-56
2023/05/02 16:04:39;;;;;;;2.40;1.50;;;17.40;65.30;;;;;;10364809;28;20056;-56
2023/05/02 16:09:41;;;;;;;4.35;2.22;;;17.40;64.70;;;;;;10364543;28;20109;-56
2023/05/02 16:14:42;;;;;;;3.63;1.65;;;17.40;64.70;;;;;;10362783;28;20436;-56
2023/05/02 16:19:42;;;;;;;4.53;2.10;;;17.40;64.70;;;;;;10364731;28;20080;-55
2023/05/02 16:24:43;;;;;;;2.83;1.42;;;17.40;64.80;;;;;;10364159;28;20022;-54
2023/05/02 16:29:44;;;;;;;2.85;1.77;;;17.40;64.80;;;;;;10363170;28;20031;-57
2023/05/02 16:34:44;;;;;;;2.13;1.40;;;17.40;64.80;;;;;;10363726;28;20069;-56
2023/05/02 16:39:45;;;;;;;2.08;1.50;;;17.30;65.30;;;;;;10364334;28;20030;-55
2023/05/02 16:44:46;;;;;;;2.17;1.85;;;17.30;64.60;;;;;;10364062;28;20738;-55
2023/05/02 16:49:55;;;;;;;2.40;1.52;;;17.40;64.70;;;;;;10363740;28;20109;-56
2023/05/02 16:54:56;;;;;;;3.65;1.92;;;17.40;64.70;;;;;;10363159;28;20030;-55
2023/05/02 16:59:57;;;;;;;3.47;1.70;;;17.40;64.70;;;;;;10363403;28;20422;-57
2023/05/02 17:04:58;;;;;;;4.65;2.22;;;17.40;64.60;;;;;;10361913;28;20104;-56
2023/05/02 17:09:59;;;;;;;2.58;1.63;;;17.40;64.70;;;;;;10369481;28;20133;-55
2023/05/02 17:14:59;;;;;;;2.65;1.50;;;17.40;64.50;;;;;;10371221;28;20084;-57
2023/05/02 17:20:00;;;;;;;2.83;1.73;;;17.40;64.50;;;;;;10370935;28;20018;-56
2023/05/02 17:25:01;;;;;;;2.50;1.42;;;17.40;64.50;;;;;;10370541;28;20068;-56
2023/05/02 17:30:02;;;;;;;2.60;1.60;;;17.30;64.40;;;;;;10370589;28;20604;-56
2023/05/02 17:35:03;;;;;;;2.38;1.70;;;17.30;64.10;;;;;;10357363;28;20117;-56
2023/05/02 17:40:06;;;;;;;3.78;1.63;;;17.30;64.40;;;;;;10370375;28;20041;-56
2023/05/02 17:45:08;;;;;;;2.60;1.50;;;17.30;64.40;;;;;;10369795;28;20037;-55
2023/05/02 17:50:09;;;;;;;2.45;1.45;;;17.20;64.50;;;;;;10369790;28;20412;-56
2023/05/02 17:55:10;;;;;;;3.67;1.50;;;17.20;64.10;;;;;;10367637;28;20041;-56
2023/05/02 18:00:12;;;;;;;2.72;1.75;;;17.20;64.70;;;;;;10369391;28;20402;-55
2023/05/02 18:05:13;;;;;;;2.42;1.10;;;17.20;64.70;;;;;;10368079;28;20440;-56
2023/05/02 18:10:14;;;;;;;1.75;1.23;;;17.10;64.60;;;;;;10368045;28;20072;-56
2023/05/02 18:15:14;;;;;;;2.08;1.50;;;17.10;64.80;;;;;;10368872;28;20619;-56
2023/05/02 18:20:15;;;;;;;3.22;1.60;;;17.10;64.90;;;;;;10367782;28;20157;-55
2023/05/02 18:25:16;;;;;;;1.88;1.33;;;17.00;64.50;;;;;;10355499;28;20046;-54
2023/05/02 18:30:18;;;;;;;1.98;1.17;;;17.00;64.70;;;;;;10369315;28;20021;-56
2023/05/02 18:35:19;;;;;;;3.65;1.13;;;17.00;64.50;;;;;;10368282;28;20419;-56
2023/05/02 18:40:21;;;;;;;1.63;1.17;;;17.00;64.90;;;;;;10368119;28;20113;-55
2023/05/02 18:45:22;;;;;;;1.80;1.08;;;16.90;64.60;;;;;;10367523;28;20579;-56
2023/05/02 18:50:25;;;;;;;1.83;1.08;;;16.90;64.60;;;;;;10367614;28;20128;-56
2023/05/02 18:55:25;;;;;;;2.15;0.85;;;16.90;64.60;;;;;;10367423;28;20037;-56
2023/05/02 19:00:30;;;;;;;2.92;1.17;;;16.90;64.70;;;;;;10366893;28;20029;-55
2023/05/02 19:05:33;;;;;;;4.53;1.35;;;16.90;64.40;;;;;;10366812;28;20092;-57
2023/05/02 19:10:34;;;;;;;1.80;1.17;;;16.90;64.10;;;;;;10367091;28;20033;-56
2023/05/02 19:15:35;;;;;;;1.77;1.23;;;16.90;64.30;;;;;;10366506;28;20041;-56
2023/05/02 19:20:35;;;;;;;2.03;1.42;;;16.80;64.00;;;;;;10366744;28;20106;-56
2023/05/02 19:25:39;;;;;;;1.70;1.10;;;16.80;64.20;;;;;;10364830;28;20501;-54
2023/05/02 19:30:41;;;;;;;3.33;1.63;;;16.80;64.10;;;;;;10366126;28;20014;-56
2023/05/02 19:35:42;;;;;;;2.95;0.93;;;16.80;64.40;;;;;;10365747;28;20034;-57
2023/05/02 19:40:42;;;;;;;1.05;0.90;;;16.80;64.20;;;;;;10364932;28;20522;-56
2023/05/02 19:45:43;;;;;;;2.58;1.58;;;16.80;64.30;;;;;;10364873;28;20133;-56
2023/05/02 19:50:44;;;;;;;2.00;1.25;;;16.80;64.30;;;;;;10364231;28;20037;-56
2023/05/02 19:55:44;;;;;;;1.58;0.90;;;16.70;64.20;;;;;;10365082;28;20037;-57
2023/05/02 20:00:48;;;;;;;2.75;1.10;;;16.70;64.10;;;;;;10362780;28;20469;-55
2023/05/02 20:05:48;;;;;;;1.83;1.13;;;16.70;64.00;;;;;;10364717;28;20042;-56
2023/05/02 20:10:49;;;;;;;1.27;1.05;;;16.70;63.80;;;;;;10364887;28;20029;-56
2023/05/02 20:15:51;;;;;;;1.40;0.70;;;16.70;63.70;;;;;;10364744;28;20072;-56
2023/05/02 20:20:52;;;;;;;1.70;0.90;;;16.70;63.50;;;;;;10364632;28;20022;-56
2023/05/02 20:25:52;;;;;;;1.60;1.20;;;16.70;63.40;;;;;;10364081;28;20077;-57
2023/05/02 20:30:53;;;;;;;1.75;0.88;;;16.70;63.40;;;;;;10365826;28;20041;-56
2023/05/02 20:35:54;;;;;;;1.98;1.02;;;16.70;63.40;;;;;;10364167;28;20117;-56
2023/05/02 20:40:56;;;;;;;2.08;1.25;;;16.60;63.30;;;;;;10363737;28;20016;-56
2023/05/02 20:45:56;;;;;;;1.60;0.90;;;16.60;63.20;;;;;;10372583;28;20464;-55
2023/05/02 20:50:57;;;;;;;2.55;1.08;;;16.70;63.10;;;;;;10370833;28;20075;-56
2023/05/02 20:55:58;;;;;;;2.20;0.80;;;16.60;63.00;;;;;;10371901;28;20117;-56
2023/05/02 21:00:59;;;;;;;2.75;1.90;;;16.60;63.00;;;;;;10371422;28;20105;-57
2023/05/02 21:05:59;;;;;;;1.85;1.08;;;16.60;62.90;;;;;;10371716;28;20052;-56
2023/05/02 21:11:00;;;;;;;1.42;1.08;;;16.60;62.90;;;;;;10371526;28;20101;-57
2023/05/02 21:16:01;;;;;;;2.05;1.60;;;16.60;62.80;;;;;;10371239;28;20057;-56
2023/05/02 21:21:01;;;;;;;2.10;1.00;;;16.60;62.80;;;;;;10369774;28;20065;-56
2023/05/02 21:26:02;;;;;;;1.13;0.70;;;16.60;62.80;;;;;;10371043;28;20060;-56
2023/05/02 21:31:05;;;;;;;2.50;0.82;;;16.60;62.70;;;;;;10372034;28;20022;-56
2023/05/02 21:36:07;;;;;;;1.48;1.08;;;16.50;62.60;;;;;;10370508;28;20030;-56
2023/05/02 21:41:07;;;;;;;2.00;1.05;;;16.50;62.50;;;;;;10370571;28;20397;-55
2023/05/02 21:46:10;;;;;;;2.00;1.15;;;16.50;62.70;;;;;;10370104;28;20034;-56
2023/05/02 21:51:12;;;;;;;1.83;0.98;;;16.50;62.90;;;;;;10369013;28;20034;-54
2023/05/02 21:56:13;;;;;;;1.25;0.77;;;16.50;62.80;;;;;;10368385;28;20041;-56
2023/05/02 22:01:14;;;;;;;1.13;0.80;;;16.50;62.70;;;;;;10369973;28;20061;-56
2023/05/02 22:06:16;;;;;;;1.42;0.95;;;16.50;62.80;;;;;;10369663;28;20050;-56
2023/05/02 22:11:16;;;;;;;1.90;1.00;;;16.50;62.50;;;;;;10368316;28;20014;-56
2023/05/02 22:16:18;;;;;;;1.30;0.77;;;16.50;62.30;;;;;;10368894;28;20041;-56
2023/05/02 22:21:19;;;;;;;2.42;1.02;;;16.50;62.30;;;;;;10368784;28;20010;-54
2023/05/02 22:26:21;;;;;;;1.08;0.80;;;16.50;62.30;;;;;;10354200;28;20528;-56
2023/05/02 22:31:22;;;;;;;1.45;0.90;;;16.40;62.40;;;;;;10369591;28;20014;-56
2023/05/02 22:36:22;;;;;;;1.33;0.77;;;16.40;62.30;;;;;;10367879;28;20639;-55
2023/05/02 22:41:23;;;;;;;1.48;0.70;;;16.40;62.20;;;;;;10368436;28;20109;-56
2023/05/02 22:46:23;;;;;;;0.93;0.68;;;16.40;62.30;;;;;;10367027;28;20120;-55
2023/05/02 22:51:24;;;;;;;1.95;0.90;;;16.40;62.00;;;;;;10367544;28;20062;-56
2023/05/02 22:56:26;;;;;;;2.00;0.90;;;16.30;62.10;;;;;;10367508;28;20578;-55
2023/05/02 23:01:27;;;;;;;2.05;1.20;;;16.40;62.10;;;;;;10366113;28;20104;-54
2023/05/02 23:06:27;;;;;;;2.10;1.00;;;16.40;62.20;;;;;;10366849;28;20147;-56
2023/05/02 23:11:28;;;;;;;1.17;0.70;;;16.40;62.00;;;;;;10366162;28;20121;-56
2023/05/02 23:16:29;;;;;;;1.33;0.88;;;16.40;61.80;;;;;;10366367;28;20073;-55
2023/05/02 23:21:29;;;;;;;1.70;1.00;;;16.30;61.80;;;;;;10365266;28;20410;-57
2023/05/02 23:26:30;;;;;;;2.40;1.08;;;16.30;61.70;;;;;;10365947;28;20648;-57
2023/05/02 23:31:31;;;;;;;1.52;0.90;;;16.30;61.70;;;;;;10367517;28;20026;-56
2023/05/02 23:36:33;;;;;;;1.08;0.80;;;16.30;61.70;;;;;;10364796;28;20041;-56
2023/05/02 23:41:34;;;;;;;1.70;0.70;;;16.30;61.70;;;;;;10365681;28;20030;-56
2023/05/02 23:46:34;;;;;;;2.17;0.70;;;16.30;61.60;;;;;;10365507;28;20029;-55
2023/05/02 23:51:36;;;;;;;1.55;0.85;;;16.30;61.40;;;;;;10365487;28;20065;-57
2023/05/02 23:56:37;;;;;;;0.95;0.85;;;16.30;61.60;;;;;;10365515;28;20045;-57
